createdAt,value
2023-01-15T00:07:28.162Z,7.46
2023-01-15T00:17:30.994Z,7.47
2023-01-15T00:27:41.052Z,7.50
2023-01-15T00:37:44.029Z,7.37
2023-01-15T00:47:50.498Z,7.43
2023-01-15T00:57:53.200Z,7.48
2023-01-15T01:07:59.121Z,7.41
2023-01-15T01:18:01.915Z,7.47
2023-01-15T01:28:06.157Z,7.35
2023-01-15T01:38:08.879Z,7.39
2023-01-15T01:48:13.866Z,7.39
2023-01-15T01:58:17.545Z,7.50
2023-01-15T02:08:22.432Z,7.58
2023-01-15T02:18:30.701Z,7.35
2023-01-15T02:28:37.142Z,7.43
2023-01-15T02:38:45.341Z,7.48
2023-01-15T02:48:55.464Z,7.54
2023-01-15T02:59:02.125Z,7.45
2023-01-15T03:09:07.069Z,7.43
2023-01-15T03:19:26.500Z,7.44
2023-01-15T03:29:34.561Z,7.44
2023-01-15T03:39:37.365Z,7.39
2023-01-15T03:49:59.790Z,7.48
2023-01-15T04:00:08.145Z,7.37
2023-01-15T04:10:13.155Z,7.37
2023-01-15T04:20:16.004Z,7.25
2023-01-15T04:30:20.184Z,7.26
2023-01-15T04:40:36.823Z,7.22
2023-01-15T04:50:41.011Z,7.20
2023-01-15T05:00:44.836Z,7.19
2023-01-15T05:10:48.846Z,7.15
2023-01-15T05:20:51.844Z,7.11
2023-01-15T05:30:55.930Z,7.11
2023-01-15T05:40:58.702Z,7.16
2023-01-15T05:51:04.347Z,7.19
2023-01-15T06:01:08.627Z,7.11
2023-01-15T06:11:13.501Z,7.09
2023-01-15T06:21:16.972Z,6.96
2023-01-15T06:31:23.137Z,7.02
2023-01-15T06:41:45.318Z,6.81
2023-01-15T06:51:49.359Z,6.60
2023-01-15T07:01:52.091Z,6.66
2023-01-15T07:11:56.205Z,6.51
2023-01-15T07:21:59.034Z,6.55
2023-01-15T07:32:03.231Z,6.40
2023-01-15T07:42:23.370Z,6.44
2023-01-15T07:52:27.369Z,6.30
2023-01-15T08:02:30.040Z,6.28
2023-01-15T08:12:57.589Z,6.38
2023-01-15T08:23:02.227Z,6.46
2023-01-15T08:33:06.272Z,6.50
2023-01-15T08:43:08.909Z,6.68
2023-01-15T08:53:13.270Z,6.75
2023-01-15T09:03:16.192Z,6.55
2023-01-15T09:13:20.176Z,6.82
2023-01-15T09:23:22.847Z,6.83
2023-01-15T09:33:30.068Z,7.13
2023-01-15T09:43:50.793Z,5.97
2023-01-15T09:54:17.392Z,5.63
2023-01-15T10:04:35.309Z,5.61
2023-01-15T10:14:45.697Z,5.51
2023-01-15T10:24:56.766Z,5.66
2023-01-15T10:35:25.171Z,5.98
2023-01-15T10:45:30.513Z,5.99
2023-01-15T10:55:37.932Z,5.61
2023-01-15T11:05:40.674Z,5.21
2023-01-15T11:16:06.806Z,5.67
2023-01-15T11:26:11.175Z,5.46
2023-01-15T11:36:24.077Z,5.20
2023-01-15T11:46:43.858Z,5.84
2023-01-15T11:56:48.495Z,6.40
2023-01-15T12:06:51.471Z,6.94
2023-01-15T12:17:03.401Z,7.90
2023-01-15T12:27:32.542Z,8.09
2023-01-15T12:37:41.496Z,9.07
2023-01-15T12:47:48.856Z,7.93
2023-01-15T12:57:56.744Z,7.89
2023-01-15T13:08:03.131Z,8.76
2023-01-15T13:18:18.671Z,8.59
2023-01-15T13:28:44.607Z,8.08
2023-01-15T13:38:54.332Z,8.02
2023-01-15T13:48:57.830Z,6.58
2023-01-15T13:59:03.312Z,6.22
2023-01-15T14:09:06.853Z,6.01
2023-01-15T14:19:24.184Z,5.02
2023-01-15T14:29:42.102Z,4.87
2023-01-15T14:39:50.252Z,4.97
2023-01-15T14:50:02.138Z,5.02
2023-01-15T15:00:10.986Z,5.16
2023-01-15T15:10:22.098Z,5.32
2023-01-15T15:20:32.574Z,5.41
2023-01-15T15:30:37.449Z,5.42
2023-01-15T15:40:47.210Z,5.51
2023-01-15T15:50:49.983Z,5.54
2023-01-15T16:00:55.620Z,5.68
2023-01-15T16:11:01.441Z,5.64
2023-01-15T16:21:05.948Z,5.84
2023-01-15T16:31:08.956Z,5.98
2023-01-15T16:41:20.651Z,6.00
2023-01-15T16:51:29.873Z,6.04
2023-01-15T17:01:42.132Z,6.10
2023-01-15T17:11:51.114Z,6.17
2023-01-15T17:21:55.206Z,6.14
2023-01-15T17:31:57.933Z,6.27
2023-01-15T17:42:02.129Z,6.28
2023-01-15T17:52:06.822Z,6.20
2023-01-15T18:02:33.003Z,6.25
2023-01-15T18:12:35.853Z,6.08
2023-01-15T18:22:40.270Z,6.22
2023-01-15T18:32:44.278Z,6.26
2023-01-15T18:43:05.844Z,6.26
2023-01-15T18:53:08.889Z,6.22
2023-01-15T19:03:12.868Z,6.04
2023-01-15T19:13:18.208Z,6.00
2023-01-15T19:23:22.631Z,6.01
2023-01-15T19:33:28.945Z,5.98
2023-01-15T19:43:50.877Z,6.09
2023-01-15T19:53:53.561Z,5.98
2023-01-15T20:03:58.092Z,6.00
2023-01-15T20:14:00.716Z,6.07
2023-01-15T20:24:04.980Z,6.04
2023-01-15T20:34:07.701Z,5.72
2023-01-15T20:44:30.215Z,5.54
2023-01-15T20:54:32.891Z,5.56
2023-01-15T21:04:36.953Z,5.64
2023-01-15T21:14:39.700Z,5.42
2023-01-15T21:24:44.025Z,5.36
2023-01-15T21:34:46.839Z,5.34
2023-01-15T21:44:50.875Z,5.40
2023-01-15T21:55:03.265Z,5.52
2023-01-15T22:05:09.005Z,5.66
2023-01-15T22:15:12.393Z,5.77
2023-01-15T22:25:16.768Z,5.77
2023-01-15T22:35:23.473Z,5.79
2023-01-15T22:45:27.569Z,5.82
2023-01-15T22:55:30.298Z,5.70
2023-01-15T23:05:39.014Z,5.86
2023-01-15T23:15:42.136Z,5.94
2023-01-15T23:25:46.252Z,5.95
2023-01-15T23:35:49.080Z,5.94
2023-01-15T23:46:10.865Z,5.95
2023-01-15T23:56:13.851Z,6.02
